sensor_id;sensor_type;location;lat;lon;timestamp;pressure;altitude;pressure_sealevel;temperature;humidity
70976;BME280;58635;51.198;6.010;2023-06-24T00:01:14;102239.84;;;24.83;50.88
70976;BME280;58635;51.198;6.010;2023-06-24T00:03:39;102242.75;;;24.81;50.43
70976;BME280;58635;51.198;6.010;2023-06-24T00:06:05;102248.56;;;24.78;50.42
70976;BME280;58635;51.198;6.010;2023-06-24T00:08:30;102235.25;;;24.68;50.44
70976;BME280;58635;51.198;6.010;2023-06-24T00:11:02;102241.84;;;24.65;51.35
70976;BME280;58635;51.198;6.010;2023-06-24T00:13:28;102243.38;;;24.61;51.20
70976;BME280;58635;51.198;6.010;2023-06-24T00:15:54;102235.13;;;24.53;50.96
70976;BME280;58635;51.198;6.010;2023-06-24T00:18:19;102241.47;;;24.52;51.63
70976;BME280;58635;51.198;6.010;2023-06-24T00:20:45;102238.22;;;24.44;51.34
70976;BME280;58635;51.198;6.010;2023-06-24T00:23:13;102242.44;;;24.45;51.03
70976;BME280;58635;51.198;6.010;2023-06-24T00:25:42;102234.16;;;24.37;51.16
70976;BME280;58635;51.198;6.010;2023-06-24T00:28:07;102241.56;;;24.35;50.99
70976;BME280;58635;51.198;6.010;2023-06-24T00:30:33;102242.59;;;24.34;51.51
70976;BME280;58635;51.198;6.010;2023-06-24T00:32:58;102243.66;;;24.33;51.74
70976;BME280;58635;51.198;6.010;2023-06-24T00:35:23;102246.56;;;24.31;51.53
70976;BME280;58635;51.198;6.010;2023-06-24T00:37:49;102247.59;;;24.30;51.37
70976;BME280;58635;51.198;6.010;2023-06-24T00:40:14;102238.28;;;24.28;51.45
70976;BME280;58635;51.198;6.010;2023-06-24T00:42:44;102248.06;;;24.27;51.88
70976;BME280;58635;51.198;6.010;2023-06-24T00:45:10;102235.09;;;24.26;51.65
70976;BME280;58635;51.198;6.010;2023-06-24T00:47:36;102237.97;;;24.24;51.35
70976;BME280;58635;51.198;6.010;2023-06-24T00:50:02;102244.56;;;24.21;51.47
70976;BME280;58635;51.198;6.010;2023-06-24T00:52:27;102237.66;;;24.15;51.89
70976;BME280;58635;51.198;6.010;2023-06-24T00:54:53;102247.41;;;24.15;51.54
70976;BME280;58635;51.198;6.010;2023-06-24T00:57:20;102234.13;;;24.10;52.00
70976;BME280;58635;51.198;6.010;2023-06-24T00:59:48;102233.03;;;24.06;51.84
70976;BME280;58635;51.198;6.010;2023-06-24T01:02:19;102238.00;;;24.02;52.26
70976;BME280;58635;51.198;6.010;2023-06-24T01:04:46;102239.56;;;23.98;52.03
70976;BME280;58635;51.198;6.010;2023-06-24T01:07:14;102243.78;;;23.99;52.10
70976;BME280;58635;51.198;6.010;2023-06-24T01:09:40;102236.53;;;23.89;51.72
70976;BME280;58635;51.198;6.010;2023-06-24T01:12:06;102250.09;;;23.93;52.12
70976;BME280;58635;51.198;6.010;2023-06-24T01:14:34;102250.56;;;23.90;52.00
70976;BME280;58635;51.198;6.010;2023-06-24T01:17:18;102241.03;;;23.89;51.97
70976;BME280;58635;51.198;6.010;2023-06-24T01:20:05;102243.09;;;23.82;51.79
70976;BME280;58635;51.198;6.010;2023-06-24T01:34:12;102244.00;;;23.71;53.07
70976;BME280;58635;51.198;6.010;2023-06-24T01:36:41;102235.28;;;23.70;53.26
70976;BME280;58635;51.198;6.010;2023-06-24T01:39:12;102235.53;;;23.69;53.06
70976;BME280;58635;51.198;6.010;2023-06-24T01:41:45;102228.06;;;23.66;52.95
70976;BME280;58635;51.198;6.010;2023-06-24T01:44:13;102231.75;;;23.65;52.81
70976;BME280;58635;51.198;6.010;2023-06-24T01:46:41;102231.50;;;23.66;53.26
70976;BME280;58635;51.198;6.010;2023-06-24T01:49:11;102230.16;;;23.63;53.03
70976;BME280;58635;51.198;6.010;2023-06-24T01:51:38;102228.03;;;23.60;53.18
70976;BME280;58635;51.198;6.010;2023-06-24T01:54:07;102231.47;;;23.61;53.12
70976;BME280;58635;51.198;6.010;2023-06-24T01:56:36;102230.91;;;23.59;53.57
70976;BME280;58635;51.198;6.010;2023-06-24T01:59:04;102233.78;;;23.57;53.46
70976;BME280;58635;51.198;6.010;2023-06-24T02:01:32;102230.56;;;23.55;53.64
70976;BME280;58635;51.198;6.010;2023-06-24T02:04:00;102224.47;;;23.55;53.91
70976;BME280;58635;51.198;6.010;2023-06-24T02:06:28;102214.97;;;23.54;53.73
70976;BME280;58635;51.198;6.010;2023-06-24T02:08:55;102226.56;;;23.53;53.82
70976;BME280;58635;51.198;6.010;2023-06-24T02:11:22;102218.66;;;23.53;54.04
70976;BME280;58635;51.198;6.010;2023-06-24T02:13:50;102217.28;;;23.50;54.39
70976;BME280;58635;51.198;6.010;2023-06-24T02:16:17;102224.19;;;23.51;54.40
70976;BME280;58635;51.198;6.010;2023-06-24T02:18:44;102221.78;;;23.50;54.44
70976;BME280;58635;51.198;6.010;2023-06-24T02:21:10;102219.94;;;23.50;54.39
70976;BME280;58635;51.198;6.010;2023-06-24T02:23:37;102224.13;;;23.46;54.48
70976;BME280;58635;51.198;6.010;2023-06-24T02:26:04;102222.53;;;23.45;54.71
70976;BME280;58635;51.198;6.010;2023-06-24T02:28:31;102224.91;;;23.47;54.81
70976;BME280;58635;51.198;6.010;2023-06-24T02:30:58;102224.13;;;23.46;54.82
70976;BME280;58635;51.198;6.010;2023-06-24T02:33:24;102216.66;;;23.43;54.77
70976;BME280;58635;51.198;6.010;2023-06-24T02:35:50;102217.72;;;23.42;54.87
70976;BME280;58635;51.198;6.010;2023-06-24T02:38:15;102214.59;;;23.45;54.51
70976;BME280;58635;51.198;6.010;2023-06-24T02:40:43;102222.53;;;23.45;54.85
70976;BME280;58635;51.198;6.010;2023-06-24T02:43:09;102226.44;;;23.43;54.93
70976;BME280;58635;51.198;6.010;2023-06-24T02:45:35;102230.66;;;23.44;54.84
70976;BME280;58635;51.198;6.010;2023-06-24T02:48:00;102228.53;;;23.41;55.13
70976;BME280;58635;51.198;6.010;2023-06-24T02:50:27;102225.88;;;23.41;55.30
70976;BME280;58635;51.198;6.010;2023-06-24T02:52:53;102235.41;;;23.42;54.79
70976;BME280;58635;51.198;6.010;2023-06-24T02:55:19;102236.44;;;23.41;55.22
70976;BME280;58635;51.198;6.010;2023-06-24T02:57:46;102234.06;;;23.39;54.80
70976;BME280;58635;51.198;6.010;2023-06-24T03:00:13;102233.00;;;23.40;54.79
70976;BME280;58635;51.198;6.010;2023-06-24T03:02:40;102237.50;;;23.40;54.71
70976;BME280;58635;51.198;6.010;2023-06-24T03:05:08;102233.25;;;23.39;54.71
70976;BME280;58635;51.198;6.010;2023-06-24T03:07:34;102228.47;;;23.36;55.05
70976;BME280;58635;51.198;6.010;2023-06-24T03:10:02;102234.28;;;23.38;55.05
70976;BME280;58635;51.198;6.010;2023-06-24T03:12:28;102239.03;;;23.36;55.00
70976;BME280;58635;51.198;6.010;2023-06-24T03:14:54;102241.13;;;23.33;54.94
70976;BME280;58635;51.198;6.010;2023-06-24T03:17:19;102239.75;;;23.31;55.18
70976;BME280;58635;51.198;6.010;2023-06-24T03:19:44;102240.78;;;23.30;55.10
70976;BME280;58635;51.198;6.010;2023-06-24T03:22:10;102250.31;;;23.31;55.52
70976;BME280;58635;51.198;6.010;2023-06-24T03:24:35;102246.56;;;23.27;55.24
70976;BME280;58635;51.198;6.010;2023-06-24T03:27:00;102244.72;;;23.27;55.29
70976;BME280;58635;51.198;6.010;2023-06-24T03:29:26;102245.22;;;23.24;55.56
70976;BME280;58635;51.198;6.010;2023-06-24T03:31:51;102252.88;;;23.26;55.74
70976;BME280;58635;51.198;6.010;2023-06-24T03:34:17;102254.41;;;23.22;55.56
70976;BME280;58635;51.198;6.010;2023-06-24T03:36:42;102249.69;;;23.24;55.90
70976;BME280;58635;51.198;6.010;2023-06-24T03:39:08;102263.13;;;23.22;55.87
70976;BME280;58635;51.198;6.010;2023-06-24T03:41:33;102257.50;;;23.19;55.90
70976;BME280;58635;51.198;6.010;2023-06-24T03:43:59;102261.75;;;23.20;55.91
70976;BME280;58635;51.198;6.010;2023-06-24T03:46:24;102264.38;;;23.20;55.95
70976;BME280;58635;51.198;6.010;2023-06-24T03:48:51;102251.69;;;23.17;55.97
70976;BME280;58635;51.198;6.010;2023-06-24T03:51:16;102254.31;;;23.17;55.95
70976;BME280;58635;51.198;6.010;2023-06-24T03:53:41;102250.34;;;23.14;55.82
70976;BME280;58635;51.198;6.010;2023-06-24T03:56:07;102250.88;;;23.16;55.78
70976;BME280;58635;51.198;6.010;2023-06-24T03:58:32;102260.66;;;23.16;56.16
70976;BME280;58635;51.198;6.010;2023-06-24T04:00:59;102250.34;;;23.14;55.50
70976;BME280;58635;51.198;6.010;2023-06-24T04:03:25;102262.25;;;23.17;55.91
70976;BME280;58635;51.198;6.010;2023-06-24T04:05:55;102265.44;;;23.19;55.61
70976;BME280;58635;51.198;6.010;2023-06-24T04:08:21;102260.66;;;23.16;55.46
70976;BME280;58635;51.198;6.010;2023-06-24T04:10:46;102261.44;;;23.16;55.32
70976;BME280;58635;51.198;6.010;2023-06-24T04:13:12;102267.03;;;23.20;54.67
70976;BME280;58635;51.198;6.010;2023-06-24T04:15:37;102271.28;;;23.21;54.58
70976;BME280;58635;51.198;6.010;2023-06-24T04:18:03;102276.88;;;23.24;54.26
70976;BME280;58635;51.198;6.010;2023-06-24T04:20:28;102276.09;;;23.24;53.51
70976;BME280;58635;51.198;6.010;2023-06-24T04:22:54;102283.28;;;23.28;53.69
70976;BME280;58635;51.198;6.010;2023-06-24T04:25:19;102290.94;;;23.30;53.40
70976;BME280;58635;51.198;6.010;2023-06-24T04:27:44;102285.13;;;23.28;53.27
70976;BME280;58635;51.198;6.010;2023-06-24T04:30:10;102284.63;;;23.31;52.76
70976;BME280;58635;51.198;6.010;2023-06-24T04:32:36;102282.31;;;23.34;53.23
70976;BME280;58635;51.198;6.010;2023-06-24T04:35:01;102280.78;;;23.39;53.12
70976;BME280;58635;51.198;6.010;2023-06-24T04:37:26;102287.97;;;23.43;53.17
70976;BME280;58635;51.198;6.010;2023-06-24T04:39:52;102278.53;;;23.47;52.73
70976;BME280;58635;51.198;6.010;2023-06-24T04:42:17;102286.81;;;23.56;53.21
70976;BME280;58635;51.198;6.010;2023-06-24T04:44:42;102280.09;;;23.65;52.42
70976;BME280;58635;51.198;6.010;2023-06-24T04:47:08;102273.31;;;23.69;52.48
70976;BME280;58635;51.198;6.010;2023-06-24T04:49:33;102278.69;;;23.79;52.23
70976;BME280;58635;51.198;6.010;2023-06-24T04:52:02;102275.09;;;23.85;52.14
70976;BME280;58635;51.198;6.010;2023-06-24T04:54:27;102279.47;;;23.97;52.20
70976;BME280;58635;51.198;6.010;2023-06-24T04:56:53;102285.66;;;24.07;51.70
70976;BME280;58635;51.198;6.010;2023-06-24T04:59:21;102288.97;;;24.19;51.73
70976;BME280;58635;51.198;6.010;2023-06-24T05:01:46;102278.75;;;24.28;51.26
70976;BME280;58635;51.198;6.010;2023-06-24T05:04:11;102278.38;;;24.41;50.83
70976;BME280;58635;51.198;6.010;2023-06-24T05:06:37;102281.34;;;24.50;50.69
70976;BME280;58635;51.198;6.010;2023-06-24T05:09:02;102284.66;;;24.62;50.65
70976;BME280;58635;51.198;6.010;2023-06-24T05:11:28;102281.84;;;24.74;50.24
70976;BME280;58635;51.198;6.010;2023-06-24T05:13:53;102283.28;;;24.87;50.06
70976;BME280;58635;51.198;6.010;2023-06-24T05:16:18;102281.50;;;24.97;49.77
70976;BME280;58635;51.198;6.010;2023-06-24T05:18:44;102286.41;;;25.11;49.52
70976;BME280;58635;51.198;6.010;2023-06-24T05:21:10;102287.81;;;25.23;48.68
70976;BME280;58635;51.198;6.010;2023-06-24T05:23:36;102288.16;;;25.37;48.75
70976;BME280;58635;51.198;6.010;2023-06-24T05:26:01;102286.13;;;25.49;48.21
70976;BME280;58635;51.198;6.010;2023-06-24T05:28:26;102286.19;;;25.59;47.95
70976;BME280;58635;51.198;6.010;2023-06-24T05:30:52;102295.00;;;25.75;47.40
70976;BME280;58635;51.198;6.010;2023-06-24T05:33:17;102288.19;;;25.89;46.61
70976;BME280;58635;51.198;6.010;2023-06-24T05:35:43;102292.50;;;26.06;46.45
70976;BME280;58635;51.198;6.010;2023-06-24T05:38:08;102292.53;;;26.21;46.25
70976;BME280;58635;51.198;6.010;2023-06-24T05:40:40;102288.06;;;26.37;45.71
70976;BME280;58635;51.198;6.010;2023-06-24T05:43:05;102293.38;;;26.52;45.48
70976;BME280;58635;51.198;6.010;2023-06-24T05:45:30;102299.00;;;26.71;44.86
70976;BME280;58635;51.198;6.010;2023-06-24T05:47:56;102296.88;;;26.88;44.65
70976;BME280;58635;51.198;6.010;2023-06-24T05:50:21;102307.53;;;27.03;44.10
70976;BME280;58635;51.198;6.010;2023-06-24T05:52:46;102297.41;;;27.16;43.39
70976;BME280;58635;51.198;6.010;2023-06-24T05:55:12;102294.47;;;27.27;42.97
70976;BME280;58635;51.198;6.010;2023-06-24T05:57:39;102298.66;;;27.44;42.70
70976;BME280;58635;51.198;6.010;2023-06-24T06:00:05;102302.09;;;27.59;42.17
70976;BME280;58635;51.198;6.010;2023-06-24T06:02:31;102293.06;;;27.71;42.06
70976;BME280;58635;51.198;6.010;2023-06-24T06:04:56;102297.00;;;27.83;41.66
70976;BME280;58635;51.198;6.010;2023-06-24T06:07:21;102299.84;;;27.97;41.52
70976;BME280;58635;51.198;6.010;2023-06-24T06:09:47;102296.34;;;28.07;41.33
70976;BME280;58635;51.198;6.010;2023-06-24T06:12:12;102299.47;;;28.14;41.00
70976;BME280;58635;51.198;6.010;2023-06-24T06:14:37;102302.88;;;28.24;40.82
70976;BME280;58635;51.198;6.010;2023-06-24T06:17:03;102299.38;;;28.34;40.50
70976;BME280;58635;51.198;6.010;2023-06-24T06:19:28;102296.63;;;28.49;40.38
70976;BME280;58635;51.198;6.010;2023-06-24T06:21:53;102303.94;;;28.68;40.29
70976;BME280;58635;51.198;6.010;2023-06-24T06:24:19;102303.25;;;28.86;39.88
70976;BME280;58635;51.198;6.010;2023-06-24T06:26:44;102311.09;;;29.06;39.79
70976;BME280;58635;51.198;6.010;2023-06-24T06:29:20;102317.00;;;29.27;39.16
70976;BME280;58635;51.198;6.010;2023-06-24T06:31:55;102316.00;;;29.47;38.86
70976;BME280;58635;51.198;6.010;2023-06-24T06:34:32;102306.81;;;29.58;38.69
70976;BME280;58635;51.198;6.010;2023-06-24T06:37:07;102309.09;;;29.70;38.01
70976;BME280;58635;51.198;6.010;2023-06-24T06:39:42;102308.75;;;29.77;38.39
70976;BME280;58635;51.198;6.010;2023-06-24T06:42:18;102304.66;;;29.84;37.98
70976;BME280;58635;51.198;6.010;2023-06-24T06:44:53;102304.78;;;29.93;37.96
70976;BME280;58635;51.198;6.010;2023-06-24T06:47:28;102308.78;;;29.95;37.41
70976;BME280;58635;51.198;6.010;2023-06-24T06:50:04;102321.16;;;30.05;37.09
70976;BME280;58635;51.198;6.010;2023-06-24T06:52:40;102318.78;;;30.09;37.11
70976;BME280;58635;51.198;6.010;2023-06-24T06:55:15;102323.69;;;30.20;37.12
70976;BME280;58635;51.198;6.010;2023-06-24T06:57:50;102322.06;;;30.38;36.92
70976;BME280;58635;51.198;6.010;2023-06-24T07:00:26;102322.63;;;30.54;36.41
70976;BME280;58635;51.198;6.010;2023-06-24T07:03:01;102324.63;;;30.62;36.28
70976;BME280;58635;51.198;6.010;2023-06-24T07:05:37;102320.25;;;30.71;37.04
70976;BME280;58635;51.198;6.010;2023-06-24T07:08:12;102328.31;;;30.85;36.33
70976;BME280;58635;51.198;6.010;2023-06-24T07:10:48;102334.94;;;30.88;36.37
70976;BME280;58635;51.198;6.010;2023-06-24T07:13:23;102329.59;;;30.88;36.30
70976;BME280;58635;51.198;6.010;2023-06-24T07:15:58;102325.34;;;30.87;35.69
70976;BME280;58635;51.198;6.010;2023-06-24T07:18:34;102329.81;;;30.91;35.94
70976;BME280;58635;51.198;6.010;2023-06-24T07:21:09;102327.34;;;30.95;35.55
70976;BME280;58635;51.198;6.010;2023-06-24T07:23:45;102320.41;;;30.94;35.45
70976;BME280;58635;51.198;6.010;2023-06-24T07:26:20;102324.00;;;31.03;35.62
70976;BME280;58635;51.198;6.010;2023-06-24T07:28:57;102324.03;;;31.17;35.89
70976;BME280;58635;51.198;6.010;2023-06-24T07:31:36;102323.94;;;31.35;35.08
70976;BME280;58635;51.198;6.010;2023-06-24T07:34:11;102337.41;;;31.58;35.24
70976;BME280;58635;51.198;6.010;2023-06-24T07:36:47;102329.91;;;31.74;34.91
70976;BME280;58635;51.198;6.010;2023-06-24T07:39:22;102336.44;;;31.81;34.46
70976;BME280;58635;51.198;6.010;2023-06-24T07:41:57;102337.94;;;31.87;34.68
70976;BME280;58635;51.198;6.010;2023-06-24T07:44:33;102336.72;;;31.93;34.69
70976;BME280;58635;51.198;6.010;2023-06-24T07:47:08;102328.47;;;32.04;34.27
70976;BME280;58635;51.198;6.010;2023-06-24T07:49:44;102329.91;;;32.23;34.41
70976;BME280;58635;51.198;6.010;2023-06-24T07:52:19;102320.75;;;32.38;33.78
70976;BME280;58635;51.198;6.010;2023-06-24T07:54:54;102331.09;;;32.53;33.45
70976;BME280;58635;51.198;6.010;2023-06-24T07:57:30;102336.59;;;32.71;33.52
70976;BME280;58635;51.198;6.010;2023-06-24T08:00:09;102336.31;;;32.81;33.23
70976;BME280;58635;51.198;6.010;2023-06-24T08:02:46;102330.19;;;32.80;33.32
70976;BME280;58635;51.198;6.010;2023-06-24T08:05:21;102336.06;;;32.82;33.18
70976;BME280;58635;51.198;6.010;2023-06-24T08:07:56;102340.47;;;32.87;33.16
70976;BME280;58635;51.198;6.010;2023-06-24T08:10:32;102340.38;;;32.92;32.92
70976;BME280;58635;51.198;6.010;2023-06-24T08:13:08;102335.47;;;32.94;32.43
70976;BME280;58635;51.198;6.010;2023-06-24T08:15:43;102334.38;;;32.95;32.46
70976;BME280;58635;51.198;6.010;2023-06-24T08:18:19;102346.78;;;32.91;32.20
70976;BME280;58635;51.198;6.010;2023-06-24T08:20:55;102336.31;;;32.81;31.88
70976;BME280;58635;51.198;6.010;2023-06-24T08:23:30;102337.47;;;32.66;31.95
70976;BME280;58635;51.198;6.010;2023-06-24T08:26:06;102333.44;;;32.46;31.91
70976;BME280;58635;51.198;6.010;2023-06-24T08:28:42;102332.97;;;32.31;32.08
70976;BME280;58635;51.198;6.010;2023-06-24T08:31:18;102327.31;;;32.18;32.15
70976;BME280;58635;51.198;6.010;2023-06-24T08:33:53;102324.06;;;32.21;32.05
70976;BME280;58635;51.198;6.010;2023-06-24T08:36:29;102325.81;;;32.26;31.75
70976;BME280;58635;51.198;6.010;2023-06-24T08:39:05;102321.25;;;32.26;31.40
70976;BME280;58635;51.198;6.010;2023-06-24T08:41:40;102326.31;;;32.28;31.27
70976;BME280;58635;51.198;6.010;2023-06-24T08:44:15;102314.03;;;32.27;31.28
70976;BME280;58635;51.198;6.010;2023-06-24T08:46:51;102319.09;;;32.28;30.39
70976;BME280;58635;51.198;6.010;2023-06-24T08:49:30;102320.38;;;32.31;29.60
70976;BME280;58635;51.198;6.010;2023-06-24T08:52:13;102310.19;;;32.33;29.67
70976;BME280;58635;51.198;6.010;2023-06-24T08:54:50;102312.06;;;32.33;28.91
70976;BME280;58635;51.198;6.010;2023-06-24T08:57:26;102310.75;;;32.30;28.37
70976;BME280;58635;51.198;6.010;2023-06-24T09:00:02;102312.44;;;32.26;27.70
70976;BME280;58635;51.198;6.010;2023-06-24T09:02:38;102303.19;;;32.10;27.31
70976;BME280;58635;51.198;6.010;2023-06-24T09:05:14;102314.28;;;32.03;27.15
70976;BME280;58635;51.198;6.010;2023-06-24T09:07:49;102306.25;;;32.03;27.30
70976;BME280;58635;51.198;6.010;2023-06-24T09:10:35;102297.13;;;32.04;27.60
70976;BME280;58635;51.198;6.010;2023-06-24T09:13:11;102298.81;;;32.14;27.87
70976;BME280;58635;51.198;6.010;2023-06-24T09:15:46;102292.22;;;32.20;27.07
70976;BME280;58635;51.198;6.010;2023-06-24T09:18:31;102289.25;;;32.21;26.91
70976;BME280;58635;51.198;6.010;2023-06-24T09:21:07;102291.25;;;32.16;26.89
70976;BME280;58635;51.198;6.010;2023-06-24T09:23:43;102295.34;;;32.13;26.46
70976;BME280;58635;51.198;6.010;2023-06-24T09:26:18;102290.69;;;32.05;26.33
70976;BME280;58635;51.198;6.010;2023-06-24T09:28:54;102290.28;;;32.12;26.37
70976;BME280;58635;51.198;6.010;2023-06-24T09:31:29;102291.31;;;32.24;26.02
70976;BME280;58635;51.198;6.010;2023-06-24T09:34:04;102283.09;;;32.35;26.28
70976;BME280;58635;51.198;6.010;2023-06-24T09:36:44;102291.34;;;32.47;26.07
70976;BME280;58635;51.198;6.010;2023-06-24T09:39:24;102279.41;;;32.53;26.16
70976;BME280;58635;51.198;6.010;2023-06-24T09:42:04;102281.84;;;32.63;25.63
70976;BME280;58635;51.198;6.010;2023-06-24T09:44:41;102284.25;;;32.73;25.77
70976;BME280;58635;51.198;6.010;2023-06-24T09:47:17;102279.06;;;32.77;25.38
70976;BME280;58635;51.198;6.010;2023-06-24T09:49:53;102282.53;;;32.77;24.80
70976;BME280;58635;51.198;6.010;2023-06-24T09:52:30;102271.03;;;32.77;25.13
70976;BME280;58635;51.198;6.010;2023-06-24T09:55:07;102276.84;;;32.93;25.00
70976;BME280;58635;51.198;6.010;2023-06-24T09:57:45;102278.00;;;33.09;25.08
70976;BME280;58635;51.198;6.010;2023-06-24T10:00:21;102269.66;;;33.19;24.84
70976;BME280;58635;51.198;6.010;2023-06-24T10:02:57;102264.16;;;33.24;24.17
70976;BME280;58635;51.198;6.010;2023-06-24T10:05:32;102266.22;;;33.27;24.17
70976;BME280;58635;51.198;6.010;2023-06-24T10:08:08;102258.66;;;33.29;23.94
70976;BME280;58635;51.198;6.010;2023-06-24T10:10:44;102252.50;;;33.29;24.06
70976;BME280;58635;51.198;6.010;2023-06-24T10:13:19;102263.53;;;33.27;23.75
70976;BME280;58635;51.198;6.010;2023-06-24T10:15:56;102259.75;;;33.28;23.43
70976;BME280;58635;51.198;6.010;2023-06-24T10:21:09;102243.22;;;33.35;23.33
70976;BME280;58635;51.198;6.010;2023-06-24T10:26:28;102246.25;;;33.42;23.62
70976;BME280;58635;51.198;6.010;2023-06-24T10:39:48;102233.34;;;33.79;21.80
70976;BME280;58635;51.198;6.010;2023-06-24T10:42:30;102242.00;;;33.84;21.82
70976;BME280;58635;51.198;6.010;2023-06-24T10:47:51;102235.41;;;33.99;21.32
70976;BME280;58635;51.198;6.010;2023-06-24T10:50:28;102231.91;;;34.07;21.39
70976;BME280;58635;51.198;6.010;2023-06-24T10:53:07;102226.34;;;34.21;20.98
70976;BME280;58635;51.198;6.010;2023-06-24T10:55:43;102229.81;;;34.30;20.96
70976;BME280;58635;51.198;6.010;2023-06-24T10:58:18;102218.59;;;34.37;21.12
70976;BME280;58635;51.198;6.010;2023-06-24T11:01:06;102222.88;;;34.46;21.21
70976;BME280;58635;51.198;6.010;2023-06-24T11:03:41;102216.97;;;34.62;20.62
70976;BME280;58635;51.198;6.010;2023-06-24T11:06:17;102218.78;;;34.87;20.35
70976;BME280;58635;51.198;6.010;2023-06-24T11:08:52;102216.94;;;35.08;19.79
70976;BME280;58635;51.198;6.010;2023-06-24T11:11:28;102212.81;;;35.32;19.97
70976;BME280;58635;51.198;6.010;2023-06-24T11:14:04;102212.53;;;35.54;19.71
70976;BME280;58635;51.198;6.010;2023-06-24T11:16:39;102212.91;;;35.86;19.76
70976;BME280;58635;51.198;6.010;2023-06-24T11:19:15;102213.09;;;36.01;19.40
70976;BME280;58635;51.198;6.010;2023-06-24T11:21:51;102210.44;;;36.26;19.11
70976;BME280;58635;51.198;6.010;2023-06-24T11:24:27;102210.94;;;36.40;18.79
70976;BME280;58635;51.198;6.010;2023-06-24T11:27:04;102198.38;;;36.56;17.87
70976;BME280;58635;51.198;6.010;2023-06-24T11:29:39;102202.09;;;36.64;17.95
70976;BME280;58635;51.198;6.010;2023-06-24T11:32:14;102193.66;;;36.66;17.99
70976;BME280;58635;51.198;6.010;2023-06-24T11:34:50;102192.00;;;36.61;18.41
70976;BME280;58635;51.198;6.010;2023-06-24T11:37:31;102191.66;;;36.63;18.00
70976;BME280;58635;51.198;6.010;2023-06-24T11:40:07;102199.75;;;36.63;18.08
70976;BME280;58635;51.198;6.010;2023-06-24T11:42:43;102180.19;;;36.66;18.82
70976;BME280;58635;51.198;6.010;2023-06-24T11:45:21;102189.66;;;36.84;18.34
70976;BME280;58635;51.198;6.010;2023-06-24T11:48:02;102191.41;;;37.04;18.73
70976;BME280;58635;51.198;6.010;2023-06-24T11:50:39;102186.31;;;37.15;18.34
70976;BME280;58635;51.198;6.010;2023-06-24T11:53:15;102175.09;;;37.13;18.29
70976;BME280;58635;51.198;6.010;2023-06-24T11:55:51;102187.31;;;37.23;18.51
70976;BME280;58635;51.198;6.010;2023-06-24T11:58:27;102173.59;;;37.28;17.44
70976;BME280;58635;51.198;6.010;2023-06-24T12:01:02;102179.56;;;37.33;17.83
70976;BME280;58635;51.198;6.010;2023-06-24T12:03:38;102174.25;;;37.37;17.85
70976;BME280;58635;51.198;6.010;2023-06-24T12:06:13;102177.63;;;37.46;17.24
70976;BME280;58635;51.198;6.010;2023-06-24T12:08:48;102179.38;;;37.54;17.14
70976;BME280;58635;51.198;6.010;2023-06-24T12:11:24;102174.88;;;37.58;17.64
70976;BME280;58635;51.198;6.010;2023-06-24T12:13:59;102179.00;;;37.68;17.59
70976;BME280;58635;51.198;6.010;2023-06-24T12:16:34;102165.09;;;37.82;17.22
70976;BME280;58635;51.198;6.010;2023-06-24T12:19:10;102171.28;;;37.98;17.14
70976;BME280;58635;51.198;6.010;2023-06-24T12:21:46;102171.06;;;38.03;17.17
70976;BME280;58635;51.198;6.010;2023-06-24T12:24:22;102167.84;;;38.13;16.98
70976;BME280;58635;51.198;6.010;2023-06-24T12:26:57;102168.63;;;38.14;17.07
70976;BME280;58635;51.198;6.010;2023-06-24T12:29:33;102163.91;;;38.11;17.14
70976;BME280;58635;51.198;6.010;2023-06-24T12:32:08;102165.66;;;38.03;16.52
70976;BME280;58635;51.198;6.010;2023-06-24T12:34:43;102159.53;;;37.90;16.86
70976;BME280;58635;51.198;6.010;2023-06-24T12:37:19;102152.38;;;37.82;16.60
70976;BME280;58635;51.198;6.010;2023-06-24T12:39:54;102148.03;;;37.78;16.58
70976;BME280;58635;51.198;6.010;2023-06-24T12:42:29;102151.69;;;37.85;17.07
70976;BME280;58635;51.198;6.010;2023-06-24T12:45:08;102152.75;;;37.96;16.64
70976;BME280;58635;51.198;6.010;2023-06-24T12:47:43;102154.75;;;37.99;17.04
70976;BME280;58635;51.198;6.010;2023-06-24T12:50:19;102152.75;;;38.12;16.67
70976;BME280;58635;51.198;6.010;2023-06-24T12:52:54;102147.38;;;38.28;16.44
70976;BME280;58635;51.198;6.010;2023-06-24T12:55:30;102157.31;;;38.40;15.89
70976;BME280;58635;51.198;6.010;2023-06-24T12:58:05;102145.69;;;38.55;15.83
70976;BME280;58635;51.198;6.010;2023-06-24T13:00:41;102146.81;;;38.70;16.17
70976;BME280;58635;51.198;6.010;2023-06-24T13:03:16;102137.28;;;38.76;15.97
70976;BME280;58635;51.198;6.010;2023-06-24T13:05:51;102140.91;;;38.83;15.81
70976;BME280;58635;51.198;6.010;2023-06-24T13:08:27;102131.88;;;38.95;15.85
70976;BME280;58635;51.198;6.010;2023-06-24T13:11:02;102143.94;;;38.98;15.71
70976;BME280;58635;51.198;6.010;2023-06-24T13:13:37;102143.34;;;38.88;15.28
70976;BME280;58635;51.198;6.010;2023-06-24T13:16:13;102141.00;;;38.87;15.26
70976;BME280;58635;51.198;6.010;2023-06-24T13:18:49;102141.66;;;39.00;15.62
70976;BME280;58635;51.198;6.010;2023-06-24T13:21:24;102143.91;;;39.13;15.46
70976;BME280;58635;51.198;6.010;2023-06-24T13:24:00;102137.34;;;39.14;15.74
70976;BME280;58635;51.198;6.010;2023-06-24T13:26:35;102130.06;;;39.18;15.88
70976;BME280;58635;51.198;6.010;2023-06-24T13:29:10;102126.38;;;39.27;15.39
70976;BME280;58635;51.198;6.010;2023-06-24T13:31:46;102131.41;;;39.28;15.15
70976;BME280;58635;51.198;6.010;2023-06-24T13:34:21;102127.88;;;39.24;14.88
70976;BME280;58635;51.198;6.010;2023-06-24T13:36:57;102128.50;;;39.17;15.25
70976;BME280;58635;51.198;6.010;2023-06-24T13:39:32;102132.16;;;39.25;15.59
70976;BME280;58635;51.198;6.010;2023-06-24T13:42:08;102127.66;;;39.33;15.11